Sim-Planet VA

Sim-Planet Nouvel Horizon. By: Anthony Pay
Since 2020.




 METAR ET TAF INFORMATION
METAR FOR OTBD
ADDS - METARS form results

(2108 UTC 28 January 2022)
Data provider http://aviationweather.gov/metar/data/
 
METAR text: OTBD 282100Z AUTO 32009KT 3000 DU NCD 16/08 Q1020 NOSIG
Conditions at: OTBD (DOHA INTL AIRPOR, QA) observed 2100 UTC 28 January 2022
Temperature: 16.0°C (61°F)
Dewpoint: 8.0°C (46°F) [RH = 59%]
Pressure (altimeter): 30.12 inches Hg (1020.0 mb)
Winds: from the NW (320 degrees) at 10 MPH (9 knots; 4.6 m/s)
Visibility: 1.86 miles (2.99 km)
Ceiling: at least 12,000 feet AGL
Clouds: sky clear below 12,000 feet AGL
Weather: DU  (widespread dust)

METAR text: OTBD 282030Z AUTO 32008KT 3000 DU NCD 16/08 Q1020 NOSIG
Conditions at: OTBD (DOHA INTL AIRPOR, QA) observed 2030 UTC 28 January 2022
Temperature: 16.0°C (61°F)
Dewpoint: 8.0°C (46°F) [RH = 59%]
Pressure (altimeter): 30.12 inches Hg (1020.0 mb)
Winds: from the NW (320 degrees) at 9 MPH (8 knots; 4.1 m/s)
Visibility: 1.86 miles (2.99 km)
Ceiling: at least 12,000 feet AGL
Clouds: sky clear below 12,000 feet AGL
Weather: DU  (widespread dust)

Forecast for: OTBD (DOHA INTL AIRPOR, QA)
Text: TAF OTBD 281703Z 2818/2924 31015KT 4000 DU NSC
Forecast period: 1800 to 2300 UTC 28 January 2022
Forecast type: FROM: standard forecast or significant change
Winds: from the NW (310 degrees) at 17 MPH (15 knots; 7.7 m/s)
Visibility: 2.49 miles (4.01 km)
Ceiling: unknown
Clouds: missing
Weather: DU  (widespread dust)
Text: BECMG 2823/2901 30008KT 6000 NSW
Forecast period: 2300 UTC 28 January 2022 to 0500 UTC 29 January 2022
Forecast type: BECOMING: Conditions expected to become as follows by 0100 UTC 29 January 2022
Winds: from the WNW (300 degrees) at 9 MPH (8 knots; 4.1 m/s)
Visibility: 4 miles (6 km)
Ceiling: unknown
Clouds: missing
Weather: NSW  (no significant weather)
Text: BECMG 2905/2907 36015KT CAVOK
Forecast period: 0500 UTC 29 January 2022 to 0000 UTC 30 January 2022
Forecast type: BECOMING: Conditions expected to become as follows by 0700 UTC 29 January 2022
Winds: from the N (360 degrees) at 17 MPH (15 knots; 7.7 m/s)
Visibility: 6 or more miles (10+ km)
Ceiling: unknown
Clouds: missing
Weather: NSW  (no significant weather)

 AÉROPORT DE AÉROPORT

 INFORMATIONS DE PISTE
Piste 15 Longueur de la piste 15000 ft Largeur de la piste 151 ft
Élévation de la piste 35 ft Seuil de la piste déplacés 2460 ft Runway heading 158
Piste 33 Longueur de la piste 15000 ft Largeur de la piste 151 ft
Élévation de la piste 25 ft Seuil de la piste déplacés 0 ft Runway heading 338

 AÉROPORT FRÉQUENCES
Type APP Nom APP Féquence 121.1 MHZ
Type ATIS Nom ATIS Féquence 126.45 MHZ
Type GND Nom GND Féquence 118.275 MHZ
Type OPS Nom KINGFISH N Féquence 139.5 MHZ
Type TWR Nom TWR Féquence 118.9 MHZ

 SIDA DE NAVIGATION
Type VOR-DME Nom Doha Féquence 112400 KHZ
Type NDB Nom Wk Féquence 323 KHZ

Nos Partenaires